createdAt,value
2018-04-17T00:01:56.536Z,38.83
2018-04-17T00:04:24.094Z,39.07
2018-04-17T00:06:51.621Z,40.00
2018-04-17T00:09:19.174Z,42.23
2018-04-17T00:11:46.699Z,40.17
2018-04-17T00:14:14.301Z,39.77
2018-04-17T00:16:41.844Z,37.57
2018-04-17T00:19:09.359Z,36.60
2018-04-17T00:21:37.084Z,36.40
2018-04-17T00:24:04.605Z,35.60
2018-04-17T00:26:32.930Z,36.10
2018-04-17T00:29:00.488Z,38.17
2018-04-17T00:31:28.030Z,35.40
2018-04-17T00:33:55.572Z,36.43
2018-04-17T00:36:23.109Z,37.10
2018-04-17T00:38:50.650Z,37.30
2018-04-17T00:41:18.218Z,37.33
2018-04-17T00:43:45.732Z,36.30
2018-04-17T00:46:13.260Z,37.03
2018-04-17T00:48:41.648Z,36.77
2018-04-17T00:51:09.169Z,36.57
2018-04-17T00:53:48.554Z,34.97
2018-04-17T00:56:16.132Z,37.17
2018-04-17T00:58:43.673Z,46.03
2018-04-17T01:01:11.213Z,38.27
2018-04-17T01:03:38.763Z,38.47
2018-04-17T01:06:07.083Z,39.73
2018-04-17T01:08:34.593Z,40.40
2018-04-17T01:11:02.889Z,42.83
2018-04-17T01:13:30.475Z,42.30
2018-04-17T01:15:58.014Z,44.37
2018-04-17T01:18:25.686Z,40.27
2018-04-17T01:20:53.255Z,39.73
2018-04-17T01:23:20.802Z,38.73
2018-04-17T01:25:48.317Z,39.60
2018-04-17T01:28:17.211Z,42.07
2018-04-17T01:30:45.515Z,42.63
2018-04-17T01:33:13.038Z,44.57
2018-04-17T01:35:40.603Z,44.43
2018-04-17T01:38:08.167Z,43.67
2018-04-17T01:40:36.466Z,46.53
2018-04-17T01:43:04.004Z,43.53
2018-04-17T01:45:32.295Z,48.90
2018-04-17T01:47:59.833Z,54.70
2018-04-17T01:50:28.148Z,52.20
2018-04-17T01:52:55.673Z,48.23
2018-04-17T01:55:23.972Z,48.30
2018-04-17T01:57:51.538Z,49.13
2018-04-17T02:00:19.073Z,55.60
2018-04-17T02:02:47.361Z,49.80
2018-04-17T02:05:14.895Z,60.80
2018-04-17T02:07:42.430Z,61.53
2018-04-17T02:10:09.939Z,63.03
2018-04-17T02:12:37.470Z,64.83
2018-04-17T02:15:04.995Z,66.97
2018-04-17T02:17:32.653Z,63.37
2018-04-17T02:20:00.208Z,62.47
2018-04-17T02:22:29.151Z,64.10
2018-04-17T02:24:57.465Z,67.87
2018-04-17T02:27:24.991Z,71.40
2018-04-17T02:29:53.285Z,66.80
2018-04-17T02:32:22.249Z,55.73
2018-04-17T02:34:50.558Z,54.40
2018-04-17T02:37:18.072Z,54.33
2018-04-17T02:39:45.591Z,48.93
2018-04-17T02:42:13.120Z,45.00
2018-04-17T02:44:40.639Z,49.70
2018-04-17T02:47:08.268Z,49.90
2018-04-17T02:49:35.808Z,51.23
2018-04-17T02:52:03.365Z,50.60
2018-04-17T02:54:30.877Z,52.17
2018-04-17T02:56:58.381Z,55.07
2018-04-17T02:59:26.835Z,51.53
2018-04-17T03:01:55.138Z,56.07
2018-04-17T03:04:22.676Z,50.97
2018-04-17T03:06:50.200Z,47.47
2018-04-17T03:09:17.728Z,49.07
2018-04-17T03:11:45.260Z,48.03
2018-04-17T03:14:13.569Z,47.73
2018-04-17T03:16:41.157Z,52.73
2018-04-17T03:19:08.708Z,49.00
2018-04-17T03:21:36.268Z,44.17
2018-04-17T03:24:03.774Z,45.97
2018-04-17T03:26:31.339Z,45.87
2018-04-17T03:28:58.854Z,43.37
2018-04-17T03:31:26.390Z,42.57
2018-04-17T03:33:53.917Z,43.07
2018-04-17T03:36:21.464Z,44.27
2018-04-17T03:38:49.000Z,52.87
2018-04-17T03:41:18.109Z,50.83
2018-04-17T03:43:47.554Z,52.57
2018-04-17T03:46:15.071Z,57.53
2018-04-17T03:48:43.367Z,66.80
2018-04-17T03:51:11.657Z,62.73
2018-04-17T03:53:40.722Z,63.57
2018-04-17T03:56:09.011Z,58.97
2018-04-17T03:58:36.566Z,58.93
2018-04-17T04:01:04.108Z,60.70
2018-04-17T04:03:31.632Z,63.53
2018-04-17T04:05:59.184Z,69.10
2018-04-17T04:08:26.731Z,67.53
2018-04-17T04:10:54.274Z,74.23
2018-04-17T04:13:21.860Z,70.90
2018-04-17T04:15:49.388Z,76.40
2018-04-17T04:18:28.674Z,77.33
2018-04-17T04:21:08.036Z,65.83
2018-04-17T04:23:48.156Z,76.00
2018-04-17T04:26:27.542Z,76.17
2018-04-17T04:28:55.088Z,68.83
2018-04-17T04:31:22.682Z,73.63
2018-04-17T04:33:50.244Z,65.27
2018-04-17T04:36:17.799Z,58.27
2018-04-17T04:38:45.339Z,63.53
2018-04-17T04:41:12.962Z,58.23
2018-04-17T04:43:40.512Z,58.83
2018-04-17T04:46:08.032Z,58.17
2018-04-17T04:48:35.548Z,54.10
2018-04-17T04:51:03.102Z,58.93
2018-04-17T04:53:31.398Z,50.97
2018-04-17T04:55:59.037Z,43.37
2018-04-17T04:58:27.468Z,39.30
2018-04-17T05:00:55.026Z,38.97
2018-04-17T05:03:23.119Z,35.17
2018-04-17T05:05:50.627Z,37.00
2018-04-17T05:08:18.151Z,35.43
2018-04-17T05:10:45.697Z,35.13
2018-04-17T05:13:13.224Z,33.47
2018-04-17T05:15:40.740Z,31.87
2018-04-17T05:18:09.052Z,35.77
2018-04-17T05:20:36.576Z,31.27
2018-04-17T05:23:04.909Z,28.57
2018-04-17T05:25:32.562Z,29.23
2018-04-17T05:28:00.133Z,33.27
2018-04-17T05:30:27.776Z,31.13
2018-04-17T05:32:55.336Z,29.47
2018-04-17T05:35:22.883Z,26.80
2018-04-17T05:37:50.415Z,28.63
2018-04-17T05:40:18.736Z,28.37
2018-04-17T05:42:46.288Z,24.27
2018-04-17T05:45:13.948Z,24.20
2018-04-17T05:47:41.470Z,24.80
2018-04-17T05:50:09.758Z,27.23
2018-04-17T05:52:38.166Z,24.90
2018-04-17T05:55:05.763Z,24.77
2018-04-17T05:57:33.308Z,23.27
2018-04-17T06:00:00.855Z,22.67
2018-04-17T06:02:28.385Z,21.97
2018-04-17T06:04:55.897Z,21.87
2018-04-17T06:07:23.406Z,20.00
2018-04-17T06:09:50.967Z,18.67
2018-04-17T06:12:18.486Z,17.43
2018-04-17T06:14:46.061Z,16.40
2018-04-17T06:17:14.353Z,16.80
2018-04-17T06:19:41.922Z,17.13
2018-04-17T06:22:09.476Z,16.63
2018-04-17T06:24:37.027Z,16.97
2018-04-17T06:27:04.574Z,17.70
2018-04-17T06:29:32.932Z,16.10
2018-04-17T06:32:00.482Z,15.67
2018-04-17T06:34:28.015Z,16.67
2018-04-17T06:36:55.563Z,16.63
2018-04-17T06:39:23.086Z,15.37
2018-04-17T06:41:51.471Z,15.90
2018-04-17T06:44:18.968Z,15.33
2018-04-17T06:46:47.325Z,17.50
2018-04-17T06:49:14.868Z,15.27
2018-04-17T06:51:42.432Z,16.60
2018-04-17T06:54:09.982Z,14.17
2018-04-17T06:56:37.540Z,17.40
2018-04-17T06:59:05.857Z,16.10
2018-04-17T07:01:33.356Z,14.40
2018-04-17T07:04:00.894Z,15.57
2018-04-17T07:06:28.419Z,15.03
2018-04-17T07:08:55.926Z,15.43
2018-04-17T07:11:23.484Z,15.23
2018-04-17T07:13:51.042Z,16.90
2018-04-17T07:16:18.656Z,14.20
2018-04-17T07:18:46.199Z,15.50
2018-04-17T07:21:13.780Z,15.27
2018-04-17T07:23:41.336Z,15.43
2018-04-17T07:26:08.871Z,14.03
2018-04-17T07:28:36.419Z,15.00
2018-04-17T07:31:04.698Z,15.40
2018-04-17T07:33:32.283Z,14.83
2018-04-17T07:35:59.808Z,14.80
2018-04-17T07:38:28.216Z,15.47
2018-04-17T07:40:55.762Z,15.60
2018-04-17T07:43:23.300Z,14.97
2018-04-17T07:45:51.646Z,21.67
2018-04-17T07:48:31.097Z,15.80
2018-04-17T07:50:58.638Z,16.50
2018-04-17T07:53:26.188Z,16.10
2018-04-17T07:55:53.744Z,16.27
2018-04-17T07:58:21.258Z,16.87
2018-04-17T08:00:49.573Z,16.40
2018-04-17T08:03:17.089Z,17.60
2018-04-17T08:05:45.508Z,17.67
2018-04-17T08:08:13.184Z,19.03
2018-04-17T08:10:40.795Z,18.83
2018-04-17T08:13:09.082Z,19.97
2018-04-17T08:15:36.648Z,19.73
2018-04-17T08:18:04.169Z,21.07
2018-04-17T08:20:32.510Z,22.67
2018-04-17T08:23:00.081Z,22.30
2018-04-17T08:25:27.661Z,20.73
2018-04-17T08:27:55.216Z,20.43
2018-04-17T08:30:23.156Z,20.67
2018-04-17T08:32:50.710Z,19.73
2018-04-17T08:35:18.360Z,19.90
2018-04-17T08:37:45.879Z,20.57
2018-04-17T08:40:14.229Z,20.37
2018-04-17T08:42:41.851Z,21.07
2018-04-17T08:45:10.113Z,20.67
2018-04-17T08:47:37.632Z,20.93
2018-04-17T08:50:05.190Z,19.23
2018-04-17T08:52:32.738Z,18.47
2018-04-17T08:55:00.300Z,19.10
2018-04-17T08:57:27.825Z,18.37
2018-04-17T08:59:55.347Z,18.17
2018-04-17T09:02:23.683Z,16.33
2018-04-17T09:04:51.241Z,16.20
2018-04-17T09:07:18.786Z,17.00
2018-04-17T09:09:46.311Z,16.07
2018-04-17T09:12:14.632Z,16.20
2018-04-17T09:14:42.170Z,15.03
2018-04-17T09:17:09.693Z,12.00
2018-04-17T09:19:37.331Z,11.03
2018-04-17T09:22:04.875Z,12.03
2018-04-17T09:24:32.470Z,11.27
2018-04-17T09:27:00.885Z,11.33
2018-04-17T09:29:28.447Z,14.50
2018-04-17T09:31:55.989Z,13.23
2018-04-17T09:34:23.543Z,12.53
2018-04-17T09:36:51.848Z,14.87
2018-04-17T09:39:19.385Z,10.17
2018-04-17T09:41:46.937Z,12.90
2018-04-17T09:44:15.249Z,14.73
2018-04-17T09:46:42.861Z,14.30
2018-04-17T09:49:11.245Z,14.40
2018-04-17T09:51:39.540Z,13.13
2018-04-17T09:54:07.081Z,10.07
2018-04-17T09:56:35.411Z,9.80
2018-04-17T09:59:02.941Z,10.70
2018-04-17T10:01:30.473Z,7.93
2018-04-17T10:03:58.027Z,7.03
2018-04-17T10:06:26.342Z,7.40
2018-04-17T10:08:53.984Z,5.87
2018-04-17T10:11:21.465Z,5.70
2018-04-17T10:13:49.006Z,4.17
2018-04-17T10:16:16.550Z,3.87
2018-04-17T10:18:44.860Z,2.50
2018-04-17T10:21:12.395Z,9.07
2018-04-17T10:23:39.928Z,8.03
2018-04-17T10:26:08.230Z,6.63
2018-04-17T10:28:35.749Z,9.27
2018-04-17T10:31:03.339Z,8.27
2018-04-17T10:33:31.624Z,10.60
2018-04-17T10:35:59.197Z,15.17
2018-04-17T10:38:26.755Z,11.90
2018-04-17T10:40:54.319Z,12.60
2018-04-17T10:43:21.896Z,11.00
2018-04-17T10:45:49.439Z,9.90
2018-04-17T10:48:17.024Z,10.73
2018-04-17T10:50:44.582Z,10.50
2018-04-17T10:53:12.087Z,10.67
2018-04-17T10:55:40.381Z,10.70
2018-04-17T10:58:07.885Z,10.97
2018-04-17T11:00:35.443Z,9.23
2018-04-17T11:03:02.957Z,10.90
2018-04-17T11:05:30.499Z,11.33
2018-04-17T11:07:58.019Z,11.40
2018-04-17T11:10:25.640Z,11.43
2018-04-17T11:12:57.471Z,9.07
2018-04-17T11:15:26.957Z,10.67
2018-04-17T11:17:54.531Z,9.67
2018-04-17T11:20:22.830Z,8.83
2018-04-17T11:22:51.443Z,10.67
2018-04-17T11:25:18.955Z,9.70
2018-04-17T11:27:47.247Z,11.00
2018-04-17T11:30:14.769Z,11.93
2018-04-17T11:32:42.343Z,14.60
2018-04-17T11:35:09.898Z,11.33
2018-04-17T11:37:38.224Z,10.20
2018-04-17T11:40:05.739Z,6.87
2018-04-17T11:42:34.083Z,14.13
2018-04-17T11:45:02.802Z,10.20
2018-04-17T11:47:30.327Z,11.60
2018-04-17T11:49:57.888Z,11.13
2018-04-17T11:52:25.446Z,10.83
2018-04-17T11:54:53.012Z,10.13
2018-04-17T11:57:20.530Z,10.80
2018-04-17T11:59:48.091Z,11.30
2018-04-17T12:02:15.669Z,10.23
2018-04-17T12:04:43.193Z,11.43
2018-04-17T12:07:10.740Z,11.20
2018-04-17T12:09:38.274Z,9.47
2018-04-17T12:12:05.852Z,10.83
2018-04-17T12:14:33.380Z,10.17
2018-04-17T12:17:01.187Z,11.83
2018-04-17T12:19:28.721Z,10.97
2018-04-17T12:21:57.002Z,9.70
2018-04-17T12:24:25.307Z,10.17
2018-04-17T12:26:52.895Z,10.07
2018-04-17T12:29:20.447Z,9.63
2018-04-17T12:31:48.024Z,12.13
2018-04-17T12:34:15.610Z,9.90
2018-04-17T12:36:43.890Z,12.37
2018-04-17T12:39:12.194Z,10.87
2018-04-17T12:41:39.745Z,10.17
2018-04-17T12:44:07.280Z,9.50
2018-04-17T12:46:34.824Z,9.87
2018-04-17T12:49:02.353Z,8.23
2018-04-17T12:51:29.900Z,9.00
2018-04-17T12:53:57.501Z,10.50
2018-04-17T12:56:25.057Z,8.80
2018-04-17T12:58:52.591Z,15.33
2018-04-17T13:01:20.127Z,11.87
2018-04-17T13:03:48.188Z,10.67
2018-04-17T13:06:15.704Z,10.83
2018-04-17T13:08:43.242Z,12.93
2018-04-17T13:11:10.765Z,12.90
2018-04-17T13:13:38.283Z,11.77
2018-04-17T13:16:05.838Z,11.60
2018-04-17T13:18:33.350Z,8.47
2018-04-17T13:21:00.889Z,7.77
2018-04-17T13:23:28.503Z,10.13
2018-04-17T13:25:56.041Z,8.53
2018-04-17T13:28:23.567Z,8.20
2018-04-17T13:30:51.876Z,9.57
2018-04-17T13:33:19.407Z,8.67
2018-04-17T13:35:47.057Z,7.17
2018-04-17T13:38:15.340Z,7.80
2018-04-17T13:40:42.870Z,8.60
2018-04-17T13:43:10.401Z,9.13
2018-04-17T13:45:37.945Z,10.97
2018-04-17T13:48:05.491Z,10.90
2018-04-17T13:50:33.016Z,9.27
2018-04-17T13:53:01.332Z,9.30
2018-04-17T13:55:28.990Z,7.93
2018-04-17T13:57:56.553Z,7.43
2018-04-17T14:00:24.479Z,8.20
2018-04-17T14:02:52.779Z,8.53
2018-04-17T14:05:20.361Z,9.90
2018-04-17T14:07:47.920Z,7.93
2018-04-17T14:10:15.450Z,8.03
2018-04-17T14:12:43.747Z,7.17
2018-04-17T14:15:11.308Z,7.27
2018-04-17T14:17:38.859Z,6.17
2018-04-17T14:20:06.411Z,5.23
2018-04-17T14:22:33.987Z,5.23
2018-04-17T14:25:01.552Z,4.30
2018-04-17T14:27:29.146Z,10.40
2018-04-17T14:29:57.415Z,4.23
2018-04-17T14:32:24.989Z,4.07
2018-04-17T14:34:52.528Z,4.27
2018-04-17T14:37:20.034Z,4.27
2018-04-17T14:39:47.591Z,3.93
2018-04-17T14:42:15.885Z,5.17
2018-04-17T14:44:43.473Z,4.77
2018-04-17T14:47:11.013Z,4.17
2018-04-17T14:49:38.566Z,5.57
2018-04-17T14:52:06.096Z,6.07
2018-04-17T14:54:34.371Z,5.20
2018-04-17T14:57:01.906Z,5.23
2018-04-17T14:59:30.210Z,6.70
2018-04-17T15:01:57.752Z,5.50
2018-04-17T15:04:26.052Z,4.50
2018-04-17T15:06:53.585Z,4.93
2018-04-17T15:09:21.131Z,9.30
2018-04-17T15:11:48.649Z,4.50
2018-04-17T15:14:16.185Z,6.23
2018-04-17T15:16:43.737Z,5.37
2018-04-17T15:19:12.112Z,5.63
2018-04-17T15:21:40.392Z,4.60
2018-04-17T15:24:08.683Z,6.83
2018-04-17T15:26:36.283Z,5.73
2018-04-17T15:29:03.824Z,5.07
2018-04-17T15:31:31.383Z,5.77
2018-04-17T15:33:58.932Z,4.97
2018-04-17T15:36:26.492Z,5.20
2018-04-17T15:38:54.021Z,5.17
2018-04-17T15:41:22.327Z,5.23
2018-04-17T15:43:49.891Z,4.17
2018-04-17T15:46:17.460Z,4.90
2018-04-17T15:48:45.015Z,4.40
2018-04-17T15:51:12.592Z,4.60
2018-04-17T15:53:40.136Z,5.33
2018-04-17T15:56:07.680Z,5.10
2018-04-17T15:58:35.221Z,6.17
2018-04-17T16:01:02.735Z,5.43
2018-04-17T16:03:30.318Z,6.73
2018-04-17T16:05:58.021Z,6.20
2018-04-17T16:08:25.559Z,5.60
2018-04-17T16:10:53.133Z,4.73
2018-04-17T16:13:20.665Z,6.20
2018-04-17T16:15:49.027Z,5.53
2018-04-17T16:18:17.321Z,4.97
2018-04-17T16:20:45.641Z,4.57
2018-04-17T16:23:13.219Z,4.80
2018-04-17T16:25:40.785Z,6.27
2018-04-17T16:28:08.313Z,4.63
2018-04-17T16:30:35.867Z,4.67
2018-04-17T16:33:03.532Z,9.10
2018-04-17T16:35:31.903Z,5.40
2018-04-17T16:37:59.452Z,4.23
2018-04-17T16:40:26.973Z,5.10
2018-04-17T16:42:55.265Z,4.67
2018-04-17T16:45:24.327Z,5.00
2018-04-17T16:47:51.913Z,6.40
2018-04-17T16:50:19.452Z,5.40
2018-04-17T16:52:47.052Z,4.30
2018-04-17T16:55:14.587Z,5.30
2018-04-17T16:57:42.880Z,5.27
2018-04-17T17:00:11.239Z,3.67
2018-04-17T17:02:39.544Z,6.03
2018-04-17T17:05:07.079Z,4.13
2018-04-17T17:07:35.417Z,6.80
2018-04-17T17:10:03.084Z,4.57
2018-04-17T17:12:30.652Z,4.40
2018-04-17T17:14:58.165Z,6.63
2018-04-17T17:17:25.804Z,5.37
2018-04-17T17:19:54.116Z,6.17
2018-04-17T17:22:21.771Z,7.77
2018-04-17T17:24:49.306Z,8.20
2018-04-17T17:27:16.843Z,5.80
2018-04-17T17:29:44.429Z,4.73
2018-04-17T17:32:11.951Z,9.27
2018-04-17T17:34:40.773Z,7.67
2018-04-17T17:37:08.342Z,7.90
2018-04-17T17:39:35.911Z,9.43
2018-04-17T17:42:03.576Z,6.30
2018-04-17T17:44:31.182Z,8.60
2018-04-17T17:46:58.737Z,6.40
2018-04-17T17:49:26.284Z,8.73
2018-04-17T17:51:53.864Z,7.77
2018-04-17T17:54:21.402Z,8.33
2018-04-17T17:56:48.939Z,11.40
2018-04-17T18:01:50.470Z,10.70
2018-04-17T18:04:18.787Z,7.50
2018-04-17T18:06:47.468Z,7.90
2018-04-17T18:09:15.026Z,8.85
2018-04-17T18:11:43.964Z,7.47
2018-04-17T18:14:12.295Z,8.55
2018-04-17T18:16:39.894Z,7.57
2018-04-17T18:19:07.464Z,8.83
2018-04-17T18:21:35.931Z,8.17
2018-04-17T18:24:03.616Z,9.87
2018-04-17T18:26:31.822Z,9.43
2018-04-17T18:29:00.064Z,8.27
2018-04-17T18:31:28.402Z,7.77
2018-04-17T18:33:55.954Z,9.17
2018-04-17T18:36:23.546Z,10.17
2018-04-17T18:38:51.088Z,12.20
2018-04-17T18:41:18.637Z,14.82
2018-04-17T18:43:46.246Z,10.40
2018-04-17T18:46:15.148Z,16.97
2018-04-17T18:48:42.792Z,11.03
2018-04-17T18:51:11.453Z,13.77
2018-04-17T18:53:39.011Z,11.73
2018-04-17T18:56:06.591Z,10.57
2018-04-17T18:58:34.901Z,9.33
2018-04-17T19:01:03.070Z,12.70
2018-04-17T19:03:30.729Z,14.53
2018-04-17T19:05:59.131Z,12.90
2018-04-17T19:08:26.739Z,11.13
2018-04-17T19:10:54.420Z,10.77
2018-04-17T19:13:22.464Z,11.13
2018-04-17T19:15:50.050Z,9.97
2018-04-17T19:18:17.864Z,9.43
2018-04-17T19:20:46.534Z,9.93
2018-04-17T19:23:14.912Z,13.50
2018-04-17T19:25:42.682Z,10.43
2018-04-17T19:28:10.526Z,10.93
2018-04-17T19:30:38.094Z,12.97
2018-04-17T19:33:05.653Z,10.87
2018-04-17T19:35:33.396Z,10.53
2018-04-17T19:38:00.977Z,8.93
2018-04-17T19:40:28.603Z,14.17
2018-04-17T19:42:56.221Z,12.17
2018-04-17T19:45:23.748Z,9.70
2018-04-17T19:47:51.361Z,8.87
2018-04-17T19:50:19.742Z,8.80
2018-04-17T19:52:47.387Z,11.60
2018-04-17T19:55:15.371Z,11.83
2018-04-17T19:57:42.983Z,8.73
2018-04-17T20:00:10.546Z,8.97
2018-04-17T20:02:38.932Z,11.90
2018-04-17T20:05:06.524Z,9.27
2018-04-17T20:07:34.049Z,8.80
2018-04-17T20:10:01.617Z,10.27
2018-04-17T20:12:29.171Z,10.23
2018-04-17T20:14:56.837Z,11.80
2018-04-17T20:17:24.383Z,11.37
2018-04-17T20:19:52.045Z,10.30
2018-04-17T20:22:19.614Z,10.10
2018-04-17T20:24:47.191Z,10.93
2018-04-17T20:27:14.732Z,13.17
2018-04-17T20:29:42.256Z,12.50
2018-04-17T20:32:09.799Z,10.73
2018-04-17T20:34:38.131Z,10.23
2018-04-17T20:37:06.467Z,12.53
2018-04-17T20:39:34.097Z,11.87
2018-04-17T20:42:01.648Z,10.80
2018-04-17T20:44:29.252Z,14.47
2018-04-17T20:46:57.649Z,11.20
2018-04-17T20:49:25.167Z,10.83
2018-04-17T20:51:52.882Z,14.10
2018-04-17T20:54:20.475Z,16.17
2018-04-17T20:56:48.035Z,10.10
2018-04-17T20:59:15.626Z,10.23
2018-04-17T21:01:43.216Z,9.00
2018-04-17T21:04:10.776Z,11.20
2018-04-17T21:06:38.369Z,12.20
2018-04-17T21:09:06.186Z,11.67
2018-04-17T21:11:33.745Z,11.00
2018-04-17T21:14:01.418Z,13.43
2018-04-17T21:16:29.002Z,10.60
2018-04-17T21:18:56.656Z,12.07
2018-04-17T21:21:24.190Z,12.57
2018-04-17T21:23:51.705Z,10.83
2018-04-17T21:26:20.261Z,11.47
2018-04-17T21:28:47.779Z,10.50
2018-04-17T21:31:15.351Z,11.53
2018-04-17T21:33:42.900Z,12.87
2018-04-17T21:36:10.487Z,12.30
2018-04-17T21:38:39.203Z,13.10
2018-04-17T21:41:06.756Z,11.27
2018-04-17T21:43:34.300Z,12.20
2018-04-17T21:46:01.947Z,10.97
2018-04-17T21:48:29.601Z,13.67
2018-04-17T21:50:57.143Z,11.23
2018-04-17T21:53:24.699Z,12.23
2018-04-17T21:55:52.251Z,13.07
2018-04-17T21:58:19.813Z,13.00
2018-04-17T22:00:47.338Z,11.37
2018-04-17T22:03:14.892Z,15.43
2018-04-17T22:05:42.460Z,12.33
2018-04-17T22:08:10.823Z,10.80
2018-04-17T22:10:38.424Z,11.33
2018-04-17T22:13:05.976Z,11.13
2018-04-17T22:15:33.524Z,13.00
2018-04-17T22:18:01.811Z,12.03
2018-04-17T22:20:29.351Z,11.40
2018-04-17T22:22:56.929Z,11.40
2018-04-17T22:25:24.517Z,11.13
2018-04-17T22:27:52.115Z,11.40
2018-04-17T22:30:19.639Z,11.50
2018-04-17T22:32:47.221Z,11.17
2018-04-17T22:35:14.813Z,11.10
2018-04-17T22:37:43.400Z,13.77
2018-04-17T22:40:10.959Z,13.83
2018-04-17T22:42:39.350Z,11.37
2018-04-17T22:45:06.881Z,11.00
2018-04-17T22:47:35.191Z,11.80
2018-04-17T22:50:02.830Z,14.43
2018-04-17T22:52:31.147Z,11.30
2018-04-17T22:54:58.681Z,14.50
2018-04-17T22:57:26.286Z,12.23
2018-04-17T22:59:53.843Z,13.27
2018-04-17T23:02:21.491Z,12.00
2018-04-17T23:04:49.846Z,11.73
2018-04-17T23:07:17.418Z,12.60
2018-04-17T23:09:44.984Z,11.73
2018-04-17T23:12:12.531Z,12.83
2018-04-17T23:14:40.106Z,12.60
2018-04-17T23:17:07.703Z,12.83
2018-04-17T23:19:35.267Z,12.27
2018-04-17T23:22:02.797Z,12.47
2018-04-17T23:24:30.396Z,13.23
2018-04-17T23:26:58.714Z,12.90
2018-04-17T23:29:26.303Z,12.60
2018-04-17T23:31:53.877Z,13.17
2018-04-17T23:34:21.471Z,11.40
2018-04-17T23:36:49.066Z,9.90
2018-04-17T23:39:16.610Z,11.97
2018-04-17T23:41:44.191Z,12.40
2018-04-17T23:44:11.722Z,11.43
2018-04-17T23:46:39.307Z,11.93
2018-04-17T23:49:06.844Z,13.27
2018-04-17T23:51:34.428Z,13.03
2018-04-17T23:54:01.958Z,12.43
2018-04-17T23:56:29.527Z,14.57
2018-04-17T23:58:57.072Z,13.23
